Time;durP1;ratioP1;P1;durP2;ratioP2;P2;SDS_P1;SDS_P2;PMS_P1;PMS_P2;Temp;Humidity;BMP_temperature;BMP_pressure;BME280_temperature;BME280_humidity;BME280_pressure;Samples;Min_cycle;Max_cycle;Signal;HPM_P1;HPM_P2
2022/07/23 00:00:17;;;;;;;;;;;;;;;14.39;92.15;101085.45;108204;1277;73191;-87
2022/07/23 00:02:44;;;;;;;;;;;;;;;14.40;92.31;101087.47;108206;1277;63302;-87
2022/07/23 00:05:11;;;;;;;;;;;;;;;14.41;92.33;101088.23;108158;1277;60428;-87
2022/07/23 00:07:38;;;;;;;;;;;;;;;14.42;92.60;101091.60;108101;1278;75914;-88
2022/07/23 00:10:05;;;;;;;;;;;;;;;14.44;92.91;101096.17;108041;1277;72458;-87
2022/07/23 00:12:32;;;;;;;;;;;;;;;14.45;92.94;101096.42;108096;1277;72652;-87
2022/07/23 00:14:59;;;;;;;;;;;;;;;14.46;93.12;101091.88;108072;1277;64990;-87
2022/07/23 00:17:26;;;;;;;;;;;;;;;14.46;92.93;101090.73;108367;1277;60012;-87
2022/07/23 00:19:54;;;;;;;;;;;;;;;14.46;93.27;101092.13;108108;1279;75784;-88
2022/07/23 00:22:20;;;;;;;;;;;;;;;14.47;92.99;101089.02;108077;1277;71440;-87
2022/07/23 00:24:47;;;;;;;;;;;;;;;14.48;93.08;101081.99;108017;1277;74186;-87
2022/07/23 00:27:34;;;;;;;;;;;;;;;14.48;93.02;101083.92;108201;1277;63564;-87
2022/07/23 00:30:01;;;;;;;;;;;;;;;14.47;93.16;101082.73;108006;1277;60280;-87
2022/07/23 00:32:28;;;;;;;;;;;;;;;14.47;93.14;101090.69;108224;1277;76051;-87
2022/07/23 00:35:15;;;;;;;;;;;;;;;14.46;93.34;101087.77;108060;1277;72678;-87
2022/07/23 00:37:42;;;;;;;;;;;;;;;14.45;93.41;101082.34;108161;1277;72935;-87
2022/07/23 00:40:12;;;;;;;;;;;;;;;14.44;93.41;101085.66;108015;1277;62289;-87
2022/07/23 00:42:39;;;;;;;;;;;;;;;14.43;93.70;101088.28;107956;1277;60336;-87
2022/07/23 00:45:06;;;;;;;;;;;;;;;14.41;93.80;101080.45;107896;1278;75394;-87
2022/07/23 00:47:33;;;;;;;;;;;;;;;14.40;93.56;101075.73;108155;1277;71679;-87
2022/07/23 00:50:00;;;;;;;;;;;;;;;14.37;93.62;101086.55;108178;1277;73949;-87
2022/07/23 00:52:27;;;;;;;;;;;;;;;14.35;93.79;101087.17;108153;1277;63445;-87
2022/07/23 00:54:54;;;;;;;;;;;;;;;14.32;93.88;101086.28;107906;1279;60600;-87
2022/07/23 00:57:21;;;;;;;;;;;;;;;14.29;94.00;101086.42;108159;1277;75694;-87
2022/07/23 00:59:54;;;;;;;;;;;;;;;14.24;94.07;101092.70;108230;1277;72089;-87
2022/07/23 01:02:21;;;;;;;;;;;;;;;14.22;94.28;101097.83;108020;1278;74023;-87
2022/07/23 01:04:49;;;;;;;;;;;;;;;14.18;94.40;101093.64;108203;1277;63285;-87
2022/07/23 01:07:16;;;;;;;;;;;;;;;14.14;94.45;101090.97;107991;1278;60122;-87
2022/07/23 01:09:44;;;;;;;;;;;;;;;14.10;94.52;101090.73;108206;1277;76814;-87
2022/07/23 01:12:10;;;;;;;;;;;;;;;14.05;94.91;101087.11;108033;1278;71115;-87
2022/07/23 01:14:38;;;;;;;;;;;;;;;14.02;95.18;101088.88;108042;1277;73904;-87
2022/07/23 01:17:05;;;;;;;;;;;;;;;13.98;95.22;101094.50;108141;1277;63354;-87
2022/07/23 01:19:32;;;;;;;;;;;;;;;13.94;95.41;101091.13;107295;1278;978410;-87
2022/07/23 01:22:01;;;;;;;;;;;;;;;13.88;95.46;101088.59;108024;1278;77162;-87
2022/07/23 01:24:28;;;;;;;;;;;;;;;13.82;95.58;101081.69;108224;1277;71487;-87
2022/07/23 01:26:55;;;;;;;;;;;;;;;13.76;95.72;101079.35;108124;1277;73922;-87
2022/07/23 01:29:22;;;;;;;;;;;;;;;13.71;96.04;101080.59;108166;1278;62838;-87
2022/07/23 01:31:49;;;;;;;;;;;;;;;13.66;96.30;101072.13;108294;1278;60593;-87
2022/07/23 01:34:16;;;;;;;;;;;;;;;13.60;96.19;101071.72;108258;1278;75485;-87
2022/07/23 01:36:44;;;;;;;;;;;;;;;13.56;96.67;101066.98;108095;1278;72571;-87
2022/07/23 01:39:11;;;;;;;;;;;;;;;13.51;96.81;101061.91;108176;1277;73138;-87
2022/07/23 01:41:38;;;;;;;;;;;;;;;13.45;97.14;101059.09;108003;1279;63179;-87
2022/07/23 01:44:05;;;;;;;;;;;;;;;13.40;97.44;101052.45;108113;1278;60788;-87
2022/07/23 01:46:32;;;;;;;;;;;;;;;13.36;97.51;101051.68;108185;1277;75927;-87
2022/07/23 01:49:00;;;;;;;;;;;;;;;13.33;97.68;101058.52;108162;1277;71146;-87
2022/07/23 01:51:27;;;;;;;;;;;;;;;13.29;97.82;101055.21;108003;1279;73148;-87
2022/07/23 01:53:54;;;;;;;;;;;;;;;13.24;98.03;101058.29;108083;1278;61697;-87
2022/07/23 01:56:21;;;;;;;;;;;;;;;13.20;98.24;101061.73;108204;1277;60128;-87
2022/07/23 01:58:48;;;;;;;;;;;;;;;13.17;98.49;101059.64;108206;1277;76861;-87
2022/07/23 02:01:15;;;;;;;;;;;;;;;13.14;98.76;101051.00;107932;1279;72269;-87
2022/07/23 02:03:42;;;;;;;;;;;;;;;13.10;98.77;101048.29;108087;1277;73196;-87
2022/07/23 02:06:09;;;;;;;;;;;;;;;13.05;98.68;101045.31;108037;1278;62315;-87
2022/07/23 02:08:36;;;;;;;;;;;;;;;13.00;98.91;101051.32;108091;1279;60102;-87
2022/07/23 02:11:07;;;;;;;;;;;;;;;12.96;99.28;101053.10;107892;1279;76353;-87
2022/07/23 02:13:34;;;;;;;;;;;;;;;12.91;99.63;101053.64;107745;1279;72629;-87
2022/07/23 02:16:01;;;;;;;;;;;;;;;12.88;99.81;101052.64;108110;1278;72908;-87
2022/07/23 02:18:28;;;;;;;;;;;;;;;12.84;100.00;101053.56;108376;1278;60991;-87
2022/07/23 02:20:55;;;;;;;;;;;;;;;12.82;100.00;101050.70;107920;1278;59956;-87
2022/07/23 02:23:22;;;;;;;;;;;;;;;12.79;100.00;101053.33;108035;1278;76962;-87
2022/07/23 02:25:49;;;;;;;;;;;;;;;12.76;100.00;101046.53;108251;1278;71644;-87
2022/07/23 02:28:16;;;;;;;;;;;;;;;12.75;100.00;101041.00;108225;1278;74087;-87
2022/07/23 02:30:43;;;;;;;;;;;;;;;12.74;100.00;101042.91;108116;1278;61960;-87
2022/07/23 02:33:10;;;;;;;;;;;;;;;12.74;100.00;101046.64;108192;1277;60058;-87
2022/07/23 02:35:36;;;;;;;;;;;;;;;12.74;100.00;101046.77;108209;1277;76309;-87
2022/07/23 02:38:03;;;;;;;;;;;;;;;12.74;100.00;101044.63;107839;1279;72624;-87
2022/07/23 02:40:31;;;;;;;;;;;;;;;12.75;100.00;101039.92;108172;1277;72980;-87
2022/07/23 02:42:58;;;;;;;;;;;;;;;12.76;100.00;101037.67;108152;1277;62395;-87
2022/07/23 02:45:25;;;;;;;;;;;;;;;12.77;100.00;101040.73;108181;1277;59948;-87
2022/07/23 02:47:52;;;;;;;;;;;;;;;12.79;100.00;101045.53;108106;1279;77031;-88
2022/07/23 02:50:19;;;;;;;;;;;;;;;12.81;100.00;101049.73;108191;1277;71510;-87
2022/07/23 02:52:46;;;;;;;;;;;;;;;12.82;100.00;101058.62;108146;1277;72978;-87
2022/07/23 02:55:13;;;;;;;;;;;;;;;12.85;100.00;101058.27;108178;1277;63692;-87
2022/07/23 02:57:40;;;;;;;;;;;;;;;12.89;100.00;101057.16;108141;1277;60484;-87
2022/07/23 03:00:08;;;;;;;;;;;;;;;12.92;100.00;101061.39;108147;1277;74704;-87
2022/07/23 03:02:35;;;;;;;;;;;;;;;12.96;100.00;101056.32;108139;1278;71727;-87
2022/07/23 03:05:02;;;;;;;;;;;;;;;12.99;100.00;101052.55;108055;1278;72708;-87
2022/07/23 03:07:29;;;;;;;;;;;;;;;13.02;100.00;101048.63;108125;1277;62380;-87
2022/07/23 03:09:56;;;;;;;;;;;;;;;13.05;100.00;101045.61;108091;1279;60578;-86
2022/07/23 03:12:23;;;;;;;;;;;;;;;13.09;100.00;101036.23;108157;1277;75716;-87
2022/07/23 03:14:50;;;;;;;;;;;;;;;13.13;100.00;101025.72;108054;1278;71179;-87
2022/07/23 03:17:18;;;;;;;;;;;;;;;13.17;100.00;101030.92;108144;1277;73202;-87
2022/07/23 03:19:45;;;;;;;;;;;;;;;13.20;100.00;101032.09;108161;1278;62021;-87
2022/07/23 03:22:12;;;;;;;;;;;;;;;13.24;100.00;101032.11;108045;1278;60236;-85
2022/07/23 03:24:54;;;;;;;;;;;;;;;13.28;100.00;101033.64;107862;1277;77094;-85
2022/07/23 03:27:22;;;;;;;;;;;;;;;13.32;100.00;101032.11;108162;1277;72115;-86
2022/07/23 03:29:50;;;;;;;;;;;;;;;13.36;100.00;101019.38;108044;1278;74076;-86
2022/07/23 03:32:17;;;;;;;;;;;;;;;13.40;100.00;101006.16;107993;1278;63302;-86
2022/07/23 03:34:44;;;;;;;;;;;;;;;13.43;100.00;101013.00;108085;1279;61648;-86
2022/07/23 03:37:12;;;;;;;;;;;;;;;13.47;100.00;101020.34;107868;1279;74718;-86
2022/07/23 03:39:39;;;;;;;;;;;;;;;13.51;100.00;101026.30;108093;1279;72003;-86
2022/07/23 03:42:06;;;;;;;;;;;;;;;13.54;100.00;101025.40;108160;1277;73130;-87
2022/07/23 03:44:34;;;;;;;;;;;;;;;13.58;100.00;101018.05;108230;1278;62032;-87
2022/07/23 03:47:00;;;;;;;;;;;;;;;13.61;100.00;101013.52;108187;1278;60099;-86
2022/07/23 03:49:31;;;;;;;;;;;;;;;13.63;100.00;101015.40;108151;1278;75803;-87
2022/07/23 03:51:58;;;;;;;;;;;;;;;13.65;100.00;101021.58;108099;1278;71719;-87
2022/07/23 03:54:25;;;;;;;;;;;;;;;13.64;100.00;101015.95;108083;1278;72819;-87
2022/07/23 03:56:52;;;;;;;;;;;;;;;13.65;100.00;101011.45;108081;1278;63460;-87
2022/07/23 03:59:19;;;;;;;;;;;;;;;13.64;100.00;101011.39;108104;1278;60157;-87
2022/07/23 04:01:49;;;;;;;;;;;;;;;13.64;100.00;101018.13;108070;1278;75322;-87
2022/07/23 04:04:17;;;;;;;;;;;;;;;13.64;100.00;101032.59;108080;1279;71183;-87
2022/07/23 04:06:44;;;;;;;;;;;;;;;13.62;100.00;101040.75;108190;1277;73888;-86
2022/07/23 04:09:11;;;;;;;;;;;;;;;13.61;100.00;101058.27;108133;1277;63565;-86
2022/07/23 04:11:38;;;;;;;;;;;;;;;13.60;100.00;101056.09;108097;1279;60918;-87
2022/07/23 04:14:05;;;;;;;;;;;;;;;13.59;100.00;101051.40;107998;1278;75713;-87
2022/07/23 04:16:32;;;;;;;;;;;;;;;13.60;100.00;101044.60;108128;1277;71533;-86
2022/07/23 04:18:59;;;;;;;;;;;;;;;13.60;100.00;101043.91;108000;1278;72781;-86
2022/07/23 04:21:27;;;;;;;;;;;;;;;13.60;100.00;101026.23;108376;1277;61939;-87
2022/07/23 04:23:54;;;;;;;;;;;;;;;13.62;100.00;101027.45;107988;1278;60434;-86
2022/07/23 04:26:21;;;;;;;;;;;;;;;13.66;100.00;101035.33;108091;1278;77635;-86
2022/07/23 04:28:49;;;;;;;;;;;;;;;13.70;100.00;101036.08;108021;1279;72867;-87
2022/07/23 04:31:15;;;;;;;;;;;;;;;13.73;100.00;101039.92;108142;1278;72958;-87
2022/07/23 04:33:43;;;;;;;;;;;;;;;13.77;100.00;101044.73;108000;1278;62355;-86
2022/07/23 04:36:10;;;;;;;;;;;;;;;13.81;100.00;101049.98;108055;1278;61606;-86
2022/07/23 04:38:37;;;;;;;;;;;;;;;13.84;100.00;101058.68;108173;1278;76895;-87
2022/07/23 04:41:07;;;;;;;;;;;;;;;13.86;100.00;101061.09;108224;1278;71321;-87
2022/07/23 04:43:33;;;;;;;;;;;;;;;13.87;100.00;101053.91;108089;1277;72742;-87
2022/07/23 04:46:01;;;;;;;;;;;;;;;13.87;100.00;101053.70;108062;1278;63481;-86
2022/07/23 04:48:28;;;;;;;;;;;;;;;13.87;100.00;101056.86;108027;1278;59945;-86
2022/07/23 04:50:56;;;;;;;;;;;;;;;13.87;100.00;101053.50;107875;1279;76984;-86
2022/07/23 04:53:23;;;;;;;;;;;;;;;13.88;100.00;101052.73;108020;1278;71412;-87
2022/07/23 04:55:49;;;;;;;;;;;;;;;13.89;100.00;101050.69;107994;1279;73444;-87
2022/07/23 04:58:16;;;;;;;;;;;;;;;13.88;100.00;101055.53;108082;1278;61317;-87
2022/07/23 05:00:46;;;;;;;;;;;;;;;13.86;100.00;101058.90;108250;1277;60391;-87
2022/07/23 05:03:13;;;;;;;;;;;;;;;13.86;100.00;101065.39;108137;1278;75776;-87
2022/07/23 05:05:40;;;;;;;;;;;;;;;13.85;100.00;101066.07;107991;1279;71458;-87
2022/07/23 05:08:07;;;;;;;;;;;;;;;13.84;100.00;101059.27;108136;1277;71917;-87
2022/07/23 05:10:35;;;;;;;;;;;;;;;13.83;100.00;101058.06;108151;1279;63830;-87
2022/07/23 05:13:02;;;;;;;;;;;;;;;13.83;100.00;101056.30;108116;1279;60550;-87
2022/07/23 05:15:30;;;;;;;;;;;;;;;13.83;100.00;101055.39;108074;1278;75848;-87
2022/07/23 05:17:57;;;;;;;;;;;;;;;13.85;100.00;101053.39;108024;1277;71030;-87
2022/07/23 05:20:24;;;;;;;;;;;;;;;13.86;100.00;101056.29;107884;1278;73359;-87
2022/07/23 05:22:51;;;;;;;;;;;;;;;13.88;100.00;101054.50;107770;1279;62653;-87
2022/07/23 05:25:18;;;;;;;;;;;;;;;13.90;100.00;101053.52;107931;1279;60269;-85
2022/07/23 05:27:45;;;;;;;;;;;;;;;13.96;100.00;101053.02;108064;1278;75562;-85
2022/07/23 05:30:12;;;;;;;;;;;;;;;14.05;100.00;101060.31;107955;1279;70866;-85
2022/07/23 05:32:39;;;;;;;;;;;;;;;14.16;100.00;101060.88;108174;1277;73331;-85
2022/07/23 05:35:06;;;;;;;;;;;;;;;14.28;100.00;101063.13;108160;1279;61968;-85
2022/07/23 05:37:33;;;;;;;;;;;;;;;14.38;100.00;101061.62;108189;1278;60478;-85
2022/07/23 05:40:00;;;;;;;;;;;;;;;14.49;100.00;101056.95;108233;1277;75774;-86
2022/07/23 05:42:27;;;;;;;;;;;;;;;14.61;100.00;101052.05;108296;1278;71613;-85
2022/07/23 05:44:54;;;;;;;;;;;;;;;14.75;100.00;101052.70;108329;1277;71954;-86
2022/07/23 05:47:20;;;;;;;;;;;;;;;14.87;100.00;101061.45;108362;1277;61942;-85
2022/07/23 05:49:47;;;;;;;;;;;;;;;14.94;100.00;101064.51;108043;1277;64130;-85
2022/07/23 05:52:14;;;;;;;;;;;;;;;14.98;100.00;101064.84;108044;1277;75500;-85
2022/07/23 05:54:41;;;;;;;;;;;;;;;15.08;100.00;101056.87;107899;1278;71103;-85
2022/07/23 05:57:08;;;;;;;;;;;;;;;15.20;99.99;101055.18;108008;1278;73065;-85
2022/07/23 05:59:35;;;;;;;;;;;;;;;15.31;99.88;101061.20;108170;1277;62240;-85
2022/07/23 06:02:02;;;;;;;;;;;;;;;15.43;99.81;101070.96;108169;1276;60544;-85
2022/07/23 06:04:29;;;;;;;;;;;;;;;15.57;99.22;101068.70;107737;1281;77034;-85
2022/07/23 06:06:56;;;;;;;;;;;;;;;15.62;97.41;101070.41;108191;1277;72119;-85
2022/07/23 06:09:22;;;;;;;;;;;;;;;15.64;96.78;101077.20;108078;1279;74188;-85
2022/07/23 06:11:49;;;;;;;;;;;;;;;15.71;96.24;101078.90;108162;1277;60107;-85
2022/07/23 06:14:15;;;;;;;;;;;;;;;15.78;95.99;101079.02;108055;1278;59360;-85
2022/07/23 06:16:42;;;;;;;;;;;;;;;15.88;95.90;101080.13;108191;1277;76798;-85
2022/07/23 06:19:09;;;;;;;;;;;;;;;15.98;95.41;101077.36;108230;1277;71466;-85
2022/07/23 06:21:36;;;;;;;;;;;;;;;16.08;94.97;101078.98;108209;1277;72962;-84
2022/07/23 06:24:13;;;;;;;;;;;;;;;16.19;93.48;101079.27;108241;1277;62855;-85
2022/07/23 06:26:40;;;;;;;;;;;;;;;16.30;93.24;101074.52;108102;1277;60527;-85
2022/07/23 06:29:07;;;;;;;;;;;;;;;16.42;91.29;101077.17;108065;1278;75815;-86
2022/07/23 06:31:34;;;;;;;;;;;;;;;16.50;90.42;101074.70;107985;1278;71891;-85
2022/07/23 06:34:01;;;;;;;;;;;;;;;16.60;90.27;101075.73;107756;1280;73825;-85
2022/07/23 06:36:28;;;;;;;;;;;;;;;16.72;89.58;101075.78;108003;1277;63523;-83
2022/07/23 06:38:55;;;;;;;;;;;;;;;16.81;88.03;101072.33;108059;1277;59664;-84
2022/07/23 06:41:23;;;;;;;;;;;;;;;16.88;87.37;101068.59;107949;1277;75665;-83
2022/07/23 06:43:50;;;;;;;;;;;;;;;16.98;85.77;101072.09;108106;1277;71242;-83
2022/07/23 06:46:17;;;;;;;;;;;;;;;17.05;83.98;101070.69;108152;1277;73180;-83
2022/07/23 06:48:44;;;;;;;;;;;;;;;17.08;82.08;101084.53;107930;1277;62230;-83
2022/07/23 06:51:11;;;;;;;;;;;;;;;17.15;82.45;101076.92;107977;1277;61505;-83
2022/07/23 06:53:38;;;;;;;;;;;;;;;17.26;83.12;101071.84;107932;1278;75799;-83
2022/07/23 06:56:08;;;;;;;;;;;;;;;17.35;81.97;101076.02;108004;1279;71469;-83
2022/07/23 06:58:34;;;;;;;;;;;;;;;17.46;81.12;101076.08;107969;1279;73458;-83
2022/07/23 07:01:01;;;;;;;;;;;;;;;17.64;80.69;101081.91;108026;1279;62439;-84
2022/07/23 07:03:34;;;;;;;;;;;;;;;17.82;80.10;101077.27;108104;1277;61416;-83
2022/07/23 07:06:02;;;;;;;;;;;;;;;17.96;79.13;101073.66;107919;1277;75679;-83
2022/07/23 07:08:31;;;;;;;;;;;;;;;18.14;77.75;101079.55;108116;1277;72168;-83
2022/07/23 07:10:57;;;;;;;;;;;;;;;18.25;75.09;101082.34;107958;1277;72657;-83
2022/07/23 07:13:24;;;;;;;;;;;;;;;18.33;73.61;101081.13;107885;1279;61953;-83
2022/07/23 07:15:51;;;;;;;;;;;;;;;18.40;72.95;101086.39;108156;1277;60021;-83
2022/07/23 07:18:18;;;;;;;;;;;;;;;18.43;72.63;101084.87;108107;1275;78336;-83
2022/07/23 07:20:45;;;;;;;;;;;;;;;18.54;72.49;101089.27;108200;1276;71326;-83
2022/07/23 07:23:12;;;;;;;;;;;;;;;18.63;70.86;101098.45;107751;1279;74244;-83
2022/07/23 07:25:42;;;;;;;;;;;;;;;18.67;69.26;101104.20;107932;1277;63345;-81
2022/07/23 07:28:12;;;;;;;;;;;;;;;18.77;69.51;101103.89;107907;1277;60044;-81
2022/07/23 07:30:42;;;;;;;;;;;;;;;18.76;68.25;101107.78;107931;1277;77894;-82
2022/07/23 07:33:09;;;;;;;;;;;;;;;18.62;67.77;101101.85;108048;1279;71589;-82
2022/07/23 07:35:36;;;;;;;;;;;;;;;18.49;67.84;101108.52;107790;1280;72919;-82
2022/07/23 07:38:03;;;;;;;;;;;;;;;18.43;68.73;101113.09;107743;1277;61419;-81
2022/07/23 07:40:30;;;;;;;;;;;;;;;18.37;69.30;101107.31;108127;1277;59863;-81
2022/07/23 07:43:01;;;;;;;;;;;;;;;18.44;69.52;101109.03;107979;1277;75814;-83
2022/07/23 07:45:28;;;;;;;;;;;;;;;18.47;67.85;101110.30;108117;1277;71933;-80
2022/07/23 07:47:55;;;;;;;;;;;;;;;18.46;68.71;101106.01;108194;1277;73469;-80
2022/07/23 07:50:22;;;;;;;;;;;;;;;18.56;69.00;101107.88;108175;1277;62042;-81
2022/07/23 07:52:49;;;;;;;;;;;;;;;18.62;66.40;101114.05;107961;1277;60671;-82
2022/07/23 07:55:16;;;;;;;;;;;;;;;18.54;65.53;101118.18;107796;1277;75569;-82
2022/07/23 07:57:43;;;;;;;;;;;;;;;18.52;66.32;101118.48;107731;1279;71568;-82
2022/07/23 08:00:15;;;;;;;;;;;;;;;18.66;66.70;101119.02;107596;1279;73935;-82
2022/07/23 08:02:52;;;;;;;;;;;;;;;18.79;66.07;101119.89;107923;1277;62548;-81
2022/07/23 08:05:22;;;;;;;;;;;;;;;18.83;65.31;101119.98;107970;1277;61132;-81
2022/07/23 08:07:54;;;;;;;;;;;;;;;18.93;64.72;101127.23;107942;1276;77158;-80
2022/07/23 08:10:21;;;;;;;;;;;;;;;19.11;64.82;101121.29;107961;1277;72535;-81
2022/07/23 08:12:48;;;;;;;;;;;;;;;19.25;64.49;101122.70;107948;1278;74015;-81
2022/07/23 08:15:17;;;;;;;;;;;;;;;19.27;64.27;101128.61;107741;1279;63384;-81
2022/07/23 08:17:44;;;;;;;;;;;;;;;19.15;63.09;101129.27;107652;1277;60016;-80
2022/07/23 08:20:12;;;;;;;;;;;;;;;19.08;63.21;101130.69;107967;1277;77941;-80
2022/07/23 08:22:41;;;;;;;;;;;;;;;19.11;63.12;101126.58;107912;1279;72508;-80
2022/07/23 08:25:09;;;;;;;;;;;;;;;19.32;63.13;101123.81;107945;1277;73190;-81
2022/07/23 08:27:36;;;;;;;;;;;;;;;19.46;62.53;101126.06;107873;1279;60460;-80
2022/07/23 08:30:03;;;;;;;;;;;;;;;19.51;62.07;101132.26;107644;1280;61341;-81
2022/07/23 08:32:30;;;;;;;;;;;;;;;19.45;61.86;101132.44;107993;1277;75747;-81
2022/07/23 08:35:10;;;;;;;;;;;;;;;19.57;62.06;101130.21;107763;1277;71738;-81
2022/07/23 08:37:37;;;;;;;;;;;;;;;19.74;62.20;101132.89;107748;1279;73229;-81
2022/07/23 08:40:04;;;;;;;;;;;;;;;19.89;61.15;101132.80;107711;1277;60365;-81
2022/07/23 08:42:31;;;;;;;;;;;;;;;19.79;60.66;101134.66;107986;1277;61293;-81
2022/07/23 08:44:58;;;;;;;;;;;;;;;19.85;61.00;101132.89;107588;1281;76585;-81
2022/07/23 08:47:25;;;;;;;;;;;;;;;19.99;57.75;101130.27;107972;1279;72392;-81
2022/07/23 08:49:52;;;;;;;;;;;;;;;20.16;57.50;101127.48;107887;1277;72960;-81
2022/07/23 08:52:19;;;;;;;;;;;;;;;20.26;56.36;101134.35;108024;1278;60242;-80
2022/07/23 08:54:53;;;;;;;;;;;;;;;20.22;55.47;101136.39;107974;1279;60114;-81
2022/07/23 08:57:19;;;;;;;;;;;;;;;20.12;55.62;101144.45;107670;1279;75574;-81
2022/07/23 08:59:46;;;;;;;;;;;;;;;20.00;56.60;101140.91;107999;1277;71377;-81
2022/07/23 09:02:13;;;;;;;;;;;;;;;19.91;57.57;101142.15;107801;1277;74225;-81
2022/07/23 09:04:40;;;;;;;;;;;;;;;19.78;58.02;101145.93;107733;1279;60205;-81
2022/07/23 09:07:07;;;;;;;;;;;;;;;19.82;58.82;101139.64;107843;1279;60518;-82
2022/07/23 09:09:35;;;;;;;;;;;;;;;20.08;58.65;101138.52;107761;1279;75614;-80
2022/07/23 09:12:03;;;;;;;;;;;;;;;20.30;58.17;101134.86;107833;1278;71624;-80
2022/07/23 09:14:39;;;;;;;;;;;;;;;20.48;55.77;101140.42;107958;1277;74393;-80
2022/07/23 09:17:10;;;;;;;;;;;;;;;20.54;54.49;101132.27;107903;1277;61362;-80
2022/07/23 09:19:37;;;;;;;;;;;;;;;20.69;54.12;101136.65;108014;1277;61272;-82
2022/07/23 09:22:20;;;;;;;;;;;;;;;20.77;53.04;101139.39;107718;1278;75763;-80
2022/07/23 09:25:05;;;;;;;;;;;;;;;20.79;53.05;101131.56;107960;1277;72385;-81
2022/07/23 09:27:48;;;;;;;;;;;;;;;20.95;53.25;101136.38;107978;1278;75101;-81
2022/07/23 09:30:24;;;;;;;;;;;;;;;21.16;53.43;101134.00;107851;1278;62051;-81
2022/07/23 09:33:06;;;;;;;;;;;;;;;21.12;52.37;101140.00;107698;1281;61497;-81
2022/07/23 09:35:53;;;;;;;;;;;;;;;20.92;52.35;101141.77;107970;1277;76845;-81
2022/07/23 09:38:20;;;;;;;;;;;;;;;20.70;51.87;101142.55;107742;1279;72682;-81
2022/07/23 09:41:06;;;;;;;;;;;;;;;20.50;51.18;101143.98;107802;1278;74134;-81
2022/07/23 09:43:34;;;;;;;;;;;;;;;20.44;52.05;101143.98;107932;1277;60687;-81
2022/07/23 09:46:32;;;;;;;;;;;;;;;20.56;52.39;101153.83;107772;1277;61271;-82
2022/07/23 09:49:09;;;;;;;;;;;;;;;20.53;53.17;101147.77;107953;1277;76247;-82
2022/07/23 09:51:46;;;;;;;;;;;;;;;20.63;53.84;101147.44;107934;1277;72796;-82
2022/07/23 09:54:22;;;;;;;;;;;;;;;20.79;52.82;101142.18;107507;1279;74087;-82
2022/07/23 09:56:49;;;;;;;;;;;;;;;20.94;52.27;101135.06;107878;1278;61160;-81
2022/07/23 09:59:19;;;;;;;;;;;;;;;21.03;51.61;101137.75;107997;1277;60041;-81
2022/07/23 10:01:46;;;;;;;;;;;;;;;21.09;49.78;101139.40;107935;1277;76754;-83
2022/07/23 10:04:13;;;;;;;;;;;;;;;21.34;50.08;101132.41;107926;1278;72642;-81
2022/07/23 10:06:40;;;;;;;;;;;;;;;21.58;50.15;101129.35;107720;1277;73239;-83
2022/07/23 10:09:08;;;;;;;;;;;;;;;21.70;49.66;101140.34;107948;1277;60680;-81
2022/07/23 10:11:36;;;;;;;;;;;;;;;21.71;49.61;101133.71;107543;1279;60407;-83
2022/07/23 10:14:04;;;;;;;;;;;;;;;21.57;49.93;101143.73;107743;1277;76311;-81
2022/07/23 10:16:32;;;;;;;;;;;;;;;21.41;50.43;101148.98;107755;1277;72010;-82
2022/07/23 10:18:59;;;;;;;;;;;;;;;21.22;50.99;101142.23;107846;1279;74027;-82
2022/07/23 10:21:44;;;;;;;;;;;;;;;21.22;50.57;101142.08;107690;1277;60360;-82
2022/07/23 10:24:20;;;;;;;;;;;;;;;21.18;49.98;101140.69;107814;1278;60214;-83
2022/07/23 10:26:48;;;;;;;;;;;;;;;21.13;49.68;101142.36;107966;1277;75741;-82
2022/07/23 10:29:15;;;;;;;;;;;;;;;21.14;50.63;101154.14;107700;1279;71403;-82
2022/07/23 10:31:50;;;;;;;;;;;;;;;21.17;50.99;101142.73;107958;1276;71690;-82
2022/07/23 10:34:36;;;;;;;;;;;;;;;21.38;50.34;101140.07;107892;1276;60679;-81
2022/07/23 10:37:22;;;;;;;;;;;;;;;21.63;48.75;101139.44;107950;1277;60189;-83
2022/07/23 10:40:08;;;;;;;;;;;;;;;21.81;47.48;101137.81;107784;1279;76775;-81
2022/07/23 10:42:35;;;;;;;;;;;;;;;22.00;48.09;101134.36;107510;1279;71383;-79
2022/07/23 10:45:21;;;;;;;;;;;;;;;22.05;47.41;101145.89;107708;1277;73148;-80
2022/07/23 10:47:48;;;;;;;;;;;;;;;22.19;48.12;101134.79;107904;1277;61073;-80
2022/07/23 10:50:23;;;;;;;;;;;;;;;22.50;47.57;101140.61;107746;1279;60266;-79
2022/07/23 10:53:08;;;;;;;;;;;;;;;22.53;47.50;101141.30;107606;1279;75786;-81
2022/07/23 10:55:35;;;;;;;;;;;;;;;22.33;47.44;101152.90;108006;1278;71165;-80
2022/07/23 10:58:02;;;;;;;;;;;;;;;22.19;47.63;101146.67;107730;1279;72093;-80
2022/07/23 11:00:30;;;;;;;;;;;;;;;22.25;47.96;101141.84;107954;1277;61831;-79
2022/07/23 11:03:07;;;;;;;;;;;;;;;22.23;47.80;101145.49;107782;1279;60782;-80
2022/07/23 11:05:45;;;;;;;;;;;;;;;22.19;47.31;101146.67;107806;1278;75492;-79
2022/07/23 11:08:15;;;;;;;;;;;;;;;22.22;46.93;101143.38;107886;1279;72801;-79
2022/07/23 11:10:44;;;;;;;;;;;;;;;22.35;47.18;101141.66;107981;1277;74183;-79
2022/07/23 11:13:26;;;;;;;;;;;;;;;22.51;46.90;101140.79;107925;1277;60514;-80
2022/07/23 11:16:05;;;;;;;;;;;;;;;22.68;46.00;101143.95;107957;1277;60172;-80
2022/07/23 11:18:44;;;;;;;;;;;;;;;22.56;45.62;101139.47;107909;1279;77222;-80
2022/07/23 11:21:21;;;;;;;;;;;;;;;22.42;46.09;101137.44;107993;1277;72116;-79
2022/07/23 11:23:59;;;;;;;;;;;;;;;22.42;46.60;101149.71;107954;1277;73384;-80
2022/07/23 11:26:45;;;;;;;;;;;;;;;22.34;46.32;101140.05;107967;1276;61916;-79
2022/07/23 11:29:45;;;;;;;;;;;;;;;22.30;46.56;101145.71;107998;1277;59935;-79
2022/07/23 11:32:24;;;;;;;;;;;;;;;22.35;45.85;101146.52;107859;1279;76519;-80
2022/07/23 11:34:53;;;;;;;;;;;;;;;22.41;45.68;101136.73;107831;1279;71876;-80
2022/07/23 11:37:31;;;;;;;;;;;;;;;22.52;45.46;101135.93;107736;1278;73413;-80
2022/07/23 11:39:58;;;;;;;;;;;;;;;22.72;45.38;101133.19;107965;1277;62082;-80
2022/07/23 11:42:25;;;;;;;;;;;;;;;22.87;43.56;101132.29;107769;1279;60084;-80
2022/07/23 11:44:57;;;;;;;;;;;;;;;23.02;43.78;101137.25;108000;1277;75575;-79
2022/07/23 11:47:25;;;;;;;;;;;;;;;23.30;43.73;101131.58;107841;1279;70402;-79
2022/07/23 11:50:06;;;;;;;;;;;;;;;23.36;43.35;101139.55;107789;1278;76486;-79
2022/07/23 11:52:33;;;;;;;;;;;;;;;23.04;43.17;101130.20;107865;1279;60561;-80
2022/07/23 11:55:00;;;;;;;;;;;;;;;22.98;42.81;101131.17;107906;1278;60486;-80
2022/07/23 11:57:28;;;;;;;;;;;;;;;22.90;43.03;101134.84;107822;1277;77617;-80
2022/07/23 11:59:56;;;;;;;;;;;;;;;22.99;43.32;101132.95;107815;1277;71327;-81
2022/07/23 12:02:23;;;;;;;;;;;;;;;23.20;43.22;101135.26;107819;1277;72951;-80
2022/07/23 12:04:50;;;;;;;;;;;;;;;23.46;42.59;101135.52;107968;1277;61053;-81
2022/07/23 12:07:30;;;;;;;;;;;;;;;23.39;42.50;101137.54;107995;1276;61122;-79
2022/07/23 12:09:58;;;;;;;;;;;;;;;23.30;42.98;101131.58;107782;1277;76042;-79
2022/07/23 12:12:25;;;;;;;;;;;;;;;23.53;42.78;101133.23;107999;1277;71755;-78
2022/07/23 12:14:53;;;;;;;;;;;;;;;23.85;41.93;101128.30;107814;1277;60380;-79
2022/07/23 12:17:20;;;;;;;;;;;;;;;24.17;40.99;101142.69;107848;1277;60281;-79
2022/07/23 12:19:48;;;;;;;;;;;;;;;24.42;40.42;101126.83;107864;1277;61596;-81
2022/07/23 12:22:15;;;;;;;;;;;;;;;24.80;39.90;101129.04;108039;1277;77926;-81
2022/07/23 12:24:55;;;;;;;;;;;;;;;25.21;38.77;101119.71;107862;1277;72800;-82
2022/07/23 12:27:23;;;;;;;;;;;;;;;25.69;37.67;101124.25;108047;1277;74398;-82
2022/07/23 12:29:50;;;;;;;;;;;;;;;25.83;37.01;101130.52;107869;1277;61402;-83
2022/07/23 12:32:27;;;;;;;;;;;;;;;25.38;37.36;101125.31;108062;1277;59870;-82